sensor_id;sensor_type;location;lat;lon;timestamp;temperature;humidity
21762;DHT22;11203;50.870;20.682;2022-09-24T00:03:47;5.80;99.90
21762;DHT22;11203;50.870;20.682;2022-09-24T00:06:18;5.90;99.90
21762;DHT22;11203;50.870;20.682;2022-09-24T00:08:49;5.90;99.90
21762;DHT22;11203;50.870;20.682;2022-09-24T00:11:17;5.90;99.90
21762;DHT22;11203;50.870;20.682;2022-09-24T00:13:47;5.90;99.90
21762;DHT22;11203;50.870;20.682;2022-09-24T00:16:16;5.90;99.90
21762;DHT22;11203;50.870;20.682;2022-09-24T00:18:42;5.90;99.90
21762;DHT22;11203;50.870;20.682;2022-09-24T00:23:39;5.80;99.90
21762;DHT22;11203;50.870;20.682;2022-09-24T00:26:05;5.90;99.90
21762;DHT22;11203;50.870;20.682;2022-09-24T00:28:51;5.90;99.90
21762;DHT22;11203;50.870;20.682;2022-09-24T00:31:17;5.80;99.90
21762;DHT22;11203;50.870;20.682;2022-09-24T00:33:43;5.80;99.90
21762;DHT22;11203;50.870;20.682;2022-09-24T00:36:09;5.80;99.90
21762;DHT22;11203;50.870;20.682;2022-09-24T00:38:35;5.80;99.90
21762;DHT22;11203;50.870;20.682;2022-09-24T00:41:02;5.90;99.90
21762;DHT22;11203;50.870;20.682;2022-09-24T00:43:36;5.90;99.90
21762;DHT22;11203;50.870;20.682;2022-09-24T00:49:12;5.90;99.90
21762;DHT22;11203;50.870;20.682;2022-09-24T00:51:42;5.90;99.90
21762;DHT22;11203;50.870;20.682;2022-09-24T00:54:20;5.90;99.90
21762;DHT22;11203;50.870;20.682;2022-09-24T00:56:49;5.80;99.90
21762;DHT22;11203;50.870;20.682;2022-09-24T00:59:17;5.80;99.90
21762;DHT22;11203;50.870;20.682;2022-09-24T01:01:46;5.70;99.90
21762;DHT22;11203;50.870;20.682;2022-09-24T01:04:14;5.70;99.90
21762;DHT22;11203;50.870;20.682;2022-09-24T01:06:42;5.80;99.90
21762;DHT22;11203;50.870;20.682;2022-09-24T01:09:08;5.80;99.90
21762;DHT22;11203;50.870;20.682;2022-09-24T01:11:44;5.70;99.90
21762;DHT22;11203;50.870;20.682;2022-09-24T01:17:47;5.80;99.90
21762;DHT22;11203;50.870;20.682;2022-09-24T01:23:34;5.90;99.90
21762;DHT22;11203;50.870;20.682;2022-09-24T01:34:43;5.90;99.90
21762;DHT22;11203;50.870;20.682;2022-09-24T01:37:16;5.90;99.90
21762;DHT22;11203;50.870;20.682;2022-09-24T01:39:45;6.00;99.90
21762;DHT22;11203;50.870;20.682;2022-09-24T01:42:12;6.00;99.90
21762;DHT22;11203;50.870;20.682;2022-09-24T01:44:40;6.00;99.90
21762;DHT22;11203;50.870;20.682;2022-09-24T01:47:12;5.90;99.90
21762;DHT22;11203;50.870;20.682;2022-09-24T01:49:43;6.00;99.90
21762;DHT22;11203;50.870;20.682;2022-09-24T01:52:13;6.00;99.90
21762;DHT22;11203;50.870;20.682;2022-09-24T01:54:45;6.00;99.90
21762;DHT22;11203;50.870;20.682;2022-09-24T01:57:22;6.10;99.90
21762;DHT22;11203;50.870;20.682;2022-09-24T02:00:05;6.10;99.90
21762;DHT22;11203;50.870;20.682;2022-09-24T02:02:48;6.10;99.90
21762;DHT22;11203;50.870;20.682;2022-09-24T02:05:37;6.00;99.90
21762;DHT22;11203;50.870;20.682;2022-09-24T02:08:28;6.10;99.90
21762;DHT22;11203;50.870;20.682;2022-09-24T02:11:04;6.10;99.90
21762;DHT22;11203;50.870;20.682;2022-09-24T02:13:38;6.00;99.90
21762;DHT22;11203;50.870;20.682;2022-09-24T02:16:33;6.10;99.90
21762;DHT22;11203;50.870;20.682;2022-09-24T02:19:05;6.10;99.90
21762;DHT22;11203;50.870;20.682;2022-09-24T02:21:35;6.10;99.90
21762;DHT22;11203;50.870;20.682;2022-09-24T02:24:06;6.10;99.90
21762;DHT22;11203;50.870;20.682;2022-09-24T02:26:37;6.00;99.90
21762;DHT22;11203;50.870;20.682;2022-09-24T02:29:03;6.00;99.90
21762;DHT22;11203;50.870;20.682;2022-09-24T02:31:37;6.00;99.90
21762;DHT22;11203;50.870;20.682;2022-09-24T02:34:09;6.00;99.90
21762;DHT22;11203;50.870;20.682;2022-09-24T02:36:48;6.00;99.90
21762;DHT22;11203;50.870;20.682;2022-09-24T02:39:21;6.10;99.90
21762;DHT22;11203;50.870;20.682;2022-09-24T02:41:48;6.10;99.90
21762;DHT22;11203;50.870;20.682;2022-09-24T02:44:15;6.10;99.90
21762;DHT22;11203;50.870;20.682;2022-09-24T02:46:45;6.00;99.90
21762;DHT22;11203;50.870;20.682;2022-09-24T02:49:12;5.80;99.90
21762;DHT22;11203;50.870;20.682;2022-09-24T02:51:40;5.90;99.90
21762;DHT22;11203;50.870;20.682;2022-09-24T02:54:07;5.90;99.90
21762;DHT22;11203;50.870;20.682;2022-09-24T02:56:34;6.00;99.90
21762;DHT22;11203;50.870;20.682;2022-09-24T02:59:00;5.90;99.90
21762;DHT22;11203;50.870;20.682;2022-09-24T03:01:31;5.90;99.90
21762;DHT22;11203;50.870;20.682;2022-09-24T03:03:58;5.90;99.90
21762;DHT22;11203;50.870;20.682;2022-09-24T03:06:24;5.90;99.90
21762;DHT22;11203;50.870;20.682;2022-09-24T03:08:51;5.80;99.90
21762;DHT22;11203;50.870;20.682;2022-09-24T03:11:19;5.90;99.90
21762;DHT22;11203;50.870;20.682;2022-09-24T03:13:48;5.80;99.90
21762;DHT22;11203;50.870;20.682;2022-09-24T03:16:16;5.80;99.90
21762;DHT22;11203;50.870;20.682;2022-09-24T03:18:43;5.70;99.90
21762;DHT22;11203;50.870;20.682;2022-09-24T03:21:11;5.80;99.90
21762;DHT22;11203;50.870;20.682;2022-09-24T03:23:39;5.80;99.90
21762;DHT22;11203;50.870;20.682;2022-09-24T03:26:05;5.80;99.90
21762;DHT22;11203;50.870;20.682;2022-09-24T03:28:31;5.80;99.90
21762;DHT22;11203;50.870;20.682;2022-09-24T03:30:57;5.80;99.90
21762;DHT22;11203;50.870;20.682;2022-09-24T03:33:40;5.70;99.90
21762;DHT22;11203;50.870;20.682;2022-09-24T03:36:19;5.70;99.90
21762;DHT22;11203;50.870;20.682;2022-09-24T03:38:52;5.70;99.90
21762;DHT22;11203;50.870;20.682;2022-09-24T03:41:24;5.70;99.90
21762;DHT22;11203;50.870;20.682;2022-09-24T03:43:52;5.80;99.90
21762;DHT22;11203;50.870;20.682;2022-09-24T03:46:18;5.80;99.90
21762;DHT22;11203;50.870;20.682;2022-09-24T03:48:44;5.70;99.90
21762;DHT22;11203;50.870;20.682;2022-09-24T03:51:14;5.70;99.90
21762;DHT22;11203;50.870;20.682;2022-09-24T03:53:43;5.70;99.90
21762;DHT22;11203;50.870;20.682;2022-09-24T03:56:09;5.80;99.90
21762;DHT22;11203;50.870;20.682;2022-09-24T03:58:37;5.80;99.90
21762;DHT22;11203;50.870;20.682;2022-09-24T04:01:05;5.80;99.90
21762;DHT22;11203;50.870;20.682;2022-09-24T04:03:32;5.80;99.90
21762;DHT22;11203;50.870;20.682;2022-09-24T04:05:58;5.90;99.90
21762;DHT22;11203;50.870;20.682;2022-09-24T04:08:24;5.90;99.90
21762;DHT22;11203;50.870;20.682;2022-09-24T04:10:51;5.80;99.90
21762;DHT22;11203;50.870;20.682;2022-09-24T04:13:18;5.90;99.90
21762;DHT22;11203;50.870;20.682;2022-09-24T04:15:44;5.90;99.90
21762;DHT22;11203;50.870;20.682;2022-09-24T04:18:10;5.90;99.90
21762;DHT22;11203;50.870;20.682;2022-09-24T04:20:37;5.90;99.90
21762;DHT22;11203;50.870;20.682;2022-09-24T04:23:03;5.90;99.90
21762;DHT22;11203;50.870;20.682;2022-09-24T04:25:30;6.00;99.90
21762;DHT22;11203;50.870;20.682;2022-09-24T04:28:02;6.00;99.90
21762;DHT22;11203;50.870;20.682;2022-09-24T04:30:31;5.90;99.90
21762;DHT22;11203;50.870;20.682;2022-09-24T04:32:58;6.00;99.90
21762;DHT22;11203;50.870;20.682;2022-09-24T04:35:26;6.00;99.90
21762;DHT22;11203;50.870;20.682;2022-09-24T04:37:54;6.00;99.90
21762;DHT22;11203;50.870;20.682;2022-09-24T04:40:21;6.00;99.90
21762;DHT22;11203;50.870;20.682;2022-09-24T04:42:47;6.10;99.90
21762;DHT22;11203;50.870;20.682;2022-09-24T04:45:14;6.10;99.90
21762;DHT22;11203;50.870;20.682;2022-09-24T04:47:48;6.10;99.90
21762;DHT22;11203;50.870;20.682;2022-09-24T04:50:23;6.10;99.90
21762;DHT22;11203;50.870;20.682;2022-09-24T04:52:50;6.10;99.90
21762;DHT22;11203;50.870;20.682;2022-09-24T04:55:16;6.20;99.90
21762;DHT22;11203;50.870;20.682;2022-09-24T04:57:45;6.20;99.90
21762;DHT22;11203;50.870;20.682;2022-09-24T05:00:14;6.30;99.90
21762;DHT22;11203;50.870;20.682;2022-09-24T05:02:43;6.30;99.90
21762;DHT22;11203;50.870;20.682;2022-09-24T05:05:10;6.40;99.90
21762;DHT22;11203;50.870;20.682;2022-09-24T05:07:37;6.40;99.90
21762;DHT22;11203;50.870;20.682;2022-09-24T05:10:05;6.40;99.90
21762;DHT22;11203;50.870;20.682;2022-09-24T05:12:31;6.50;99.90
21762;DHT22;11203;50.870;20.682;2022-09-24T05:15:00;6.60;99.90
21762;DHT22;11203;50.870;20.682;2022-09-24T05:17:26;6.60;99.90
21762;DHT22;11203;50.870;20.682;2022-09-24T05:19:52;6.60;99.90
21762;DHT22;11203;50.870;20.682;2022-09-24T05:22:18;6.70;99.90
21762;DHT22;11203;50.870;20.682;2022-09-24T05:24:44;6.70;99.90
21762;DHT22;11203;50.870;20.682;2022-09-24T05:27:10;6.90;99.90
21762;DHT22;11203;50.870;20.682;2022-09-24T05:29:41;6.80;99.90
21762;DHT22;11203;50.870;20.682;2022-09-24T05:32:13;6.80;99.90
21762;DHT22;11203;50.870;20.682;2022-09-24T05:34:42;6.90;99.90
21762;DHT22;11203;50.870;20.682;2022-09-24T05:37:09;6.90;99.90
21762;DHT22;11203;50.870;20.682;2022-09-24T05:39:35;6.90;99.90
21762;DHT22;11203;50.870;20.682;2022-09-24T05:42:02;7.00;99.90
21762;DHT22;11203;50.870;20.682;2022-09-24T05:44:29;7.00;99.90
21762;DHT22;11203;50.870;20.682;2022-09-24T05:46:56;7.10;99.90
21762;DHT22;11203;50.870;20.682;2022-09-24T05:49:23;7.10;99.90
21762;DHT22;11203;50.870;20.682;2022-09-24T05:51:49;7.20;99.90
21762;DHT22;11203;50.870;20.682;2022-09-24T05:54:16;7.20;99.90
21762;DHT22;11203;50.870;20.682;2022-09-24T05:56:43;7.30;99.90
21762;DHT22;11203;50.870;20.682;2022-09-24T05:59:10;7.40;99.90
21762;DHT22;11203;50.870;20.682;2022-09-24T06:01:36;7.40;99.90
21762;DHT22;11203;50.870;20.682;2022-09-24T06:04:03;7.50;99.90
21762;DHT22;11203;50.870;20.682;2022-09-24T06:06:29;7.70;99.90
21762;DHT22;11203;50.870;20.682;2022-09-24T06:08:55;7.80;99.90
21762;DHT22;11203;50.870;20.682;2022-09-24T06:11:21;7.90;99.90
21762;DHT22;11203;50.870;20.682;2022-09-24T06:13:48;7.90;99.90
21762;DHT22;11203;50.870;20.682;2022-09-24T06:16:15;8.00;99.90
21762;DHT22;11203;50.870;20.682;2022-09-24T06:18:42;8.00;99.90
21762;DHT22;11203;50.870;20.682;2022-09-24T06:21:14;8.10;99.90
21762;DHT22;11203;50.870;20.682;2022-09-24T06:23:42;8.10;99.90
21762;DHT22;11203;50.870;20.682;2022-09-24T06:26:12;8.20;99.90
21762;DHT22;11203;50.870;20.682;2022-09-24T06:28:39;8.20;99.90
21762;DHT22;11203;50.870;20.682;2022-09-24T06:31:06;8.30;99.90
21762;DHT22;11203;50.870;20.682;2022-09-24T06:33:34;8.20;99.90
21762;DHT22;11203;50.870;20.682;2022-09-24T06:36:01;8.30;99.90
21762;DHT22;11203;50.870;20.682;2022-09-24T06:38:28;8.40;99.90
21762;DHT22;11203;50.870;20.682;2022-09-24T06:41:03;8.40;99.90
21762;DHT22;11203;50.870;20.682;2022-09-24T06:43:30;8.50;99.90
21762;DHT22;11203;50.870;20.682;2022-09-24T06:45:59;8.50;99.90
21762;DHT22;11203;50.870;20.682;2022-09-24T06:48:27;8.60;99.90
21762;DHT22;11203;50.870;20.682;2022-09-24T06:50:54;8.70;99.90
21762;DHT22;11203;50.870;20.682;2022-09-24T06:53:21;8.70;99.90
21762;DHT22;11203;50.870;20.682;2022-09-24T06:55:47;8.80;99.90
21762;DHT22;11203;50.870;20.682;2022-09-24T06:58:16;8.90;99.90
21762;DHT22;11203;50.870;20.682;2022-09-24T07:00:53;9.00;99.90
21762;DHT22;11203;50.870;20.682;2022-09-24T07:03:23;9.00;99.90
21762;DHT22;11203;50.870;20.682;2022-09-24T07:05:49;9.10;99.90
21762;DHT22;11203;50.870;20.682;2022-09-24T07:08:16;9.20;99.90
21762;DHT22;11203;50.870;20.682;2022-09-24T07:10:46;9.30;99.90
21762;DHT22;11203;50.870;20.682;2022-09-24T07:13:17;9.40;99.90
21762;DHT22;11203;50.870;20.682;2022-09-24T07:15:46;9.40;99.90
21762;DHT22;11203;50.870;20.682;2022-09-24T07:18:12;9.50;99.90
21762;DHT22;11203;50.870;20.682;2022-09-24T07:20:39;9.50;99.90
21762;DHT22;11203;50.870;20.682;2022-09-24T07:23:06;9.60;99.90
21762;DHT22;11203;50.870;20.682;2022-09-24T07:25:34;9.60;1.00
21762;DHT22;11203;50.870;20.682;2022-09-24T07:28:06;9.80;1.00
21762;DHT22;11203;50.870;20.682;2022-09-24T07:30:34;9.90;1.00
21762;DHT22;11203;50.870;20.682;2022-09-24T07:33:01;10.00;1.00
21762;DHT22;11203;50.870;20.682;2022-09-24T07:35:28;10.10;1.00
21762;DHT22;11203;50.870;20.682;2022-09-24T07:37:58;10.20;1.00
21762;DHT22;11203;50.870;20.682;2022-09-24T07:40:25;10.30;1.00
21762;DHT22;11203;50.870;20.682;2022-09-24T07:42:51;10.50;1.00
21762;DHT22;11203;50.870;20.682;2022-09-24T07:45:19;10.50;1.00
21762;DHT22;11203;50.870;20.682;2022-09-24T07:47:45;10.60;1.00
21762;DHT22;11203;50.870;20.682;2022-09-24T07:50:11;10.70;99.90
21762;DHT22;11203;50.870;20.682;2022-09-24T07:52:38;10.80;68.20
21762;DHT22;11203;50.870;20.682;2022-09-24T07:55:05;10.90;99.90
21762;DHT22;11203;50.870;20.682;2022-09-24T07:57:32;11.00;1.00
21762;DHT22;11203;50.870;20.682;2022-09-24T07:59:58;11.10;99.90
21762;DHT22;11203;50.870;20.682;2022-09-24T08:02:24;11.20;1.00
21762;DHT22;11203;50.870;20.682;2022-09-24T08:04:50;11.40;1.00
21762;DHT22;11203;50.870;20.682;2022-09-24T08:07:16;11.50;99.90
21762;DHT22;11203;50.870;20.682;2022-09-24T08:09:42;11.50;1.00
21762;DHT22;11203;50.870;20.682;2022-09-24T08:12:08;11.60;99.90
21762;DHT22;11203;50.870;20.682;2022-09-24T08:14:35;11.70;1.00
21762;DHT22;11203;50.870;20.682;2022-09-24T08:17:01;11.80;99.90
21762;DHT22;11203;50.870;20.682;2022-09-24T08:19:27;11.80;1.00
21762;DHT22;11203;50.870;20.682;2022-09-24T08:21:55;12.00;1.00
21762;DHT22;11203;50.870;20.682;2022-09-24T08:24:22;12.00;1.00
21762;DHT22;11203;50.870;20.682;2022-09-24T08:26:48;12.20;60.00
21762;DHT22;11203;50.870;20.682;2022-09-24T08:29:14;12.30;1.00
21762;DHT22;11203;50.870;20.682;2022-09-24T08:31:41;12.30;1.00
21762;DHT22;11203;50.870;20.682;2022-09-24T08:34:07;12.50;99.90
21762;DHT22;11203;50.870;20.682;2022-09-24T08:36:33;12.60;99.90
21762;DHT22;11203;50.870;20.682;2022-09-24T08:38:59;12.70;79.10
21762;DHT22;11203;50.870;20.682;2022-09-24T08:41:53;12.70;1.00
21762;DHT22;11203;50.870;20.682;2022-09-24T08:44:35;12.80;99.90
21762;DHT22;11203;50.870;20.682;2022-09-24T08:47:36;12.80;1.00
21762;DHT22;11203;50.870;20.682;2022-09-24T08:50:13;12.90;1.00
21762;DHT22;11203;50.870;20.682;2022-09-24T08:55:13;13.10;99.90
21762;DHT22;11203;50.870;20.682;2022-09-24T09:09:24;13.50;1.00
21762;DHT22;11203;50.870;20.682;2022-09-24T09:11:58;13.50;1.00
21762;DHT22;11203;50.870;20.682;2022-09-24T09:15:06;13.60;1.00
21762;DHT22;11203;50.870;20.682;2022-09-24T09:17:46;13.70;1.00
21762;DHT22;11203;50.870;20.682;2022-09-24T09:20:21;13.70;1.00
21762;DHT22;11203;50.870;20.682;2022-09-24T09:22:51;13.70;1.00
21762;DHT22;11203;50.870;20.682;2022-09-24T09:25:19;13.70;1.00
21762;DHT22;11203;50.870;20.682;2022-09-24T09:28:09;13.80;1.00
21762;DHT22;11203;50.870;20.682;2022-09-24T09:36:52;14.00;1.00
21762;DHT22;11203;50.870;20.682;2022-09-24T09:42:20;14.10;1.00
21762;DHT22;11203;50.870;20.682;2022-09-24T09:45:18;14.20;1.00
21762;DHT22;11203;50.870;20.682;2022-09-24T09:47:53;14.30;1.00
21762;DHT22;11203;50.870;20.682;2022-09-24T09:50:47;14.30;1.00
21762;DHT22;11203;50.870;20.682;2022-09-24T09:53:28;14.30;1.00
21762;DHT22;11203;50.870;20.682;2022-09-24T09:56:04;14.30;1.00
21762;DHT22;11203;50.870;20.682;2022-09-24T09:58:37;14.20;1.00
21762;DHT22;11203;50.870;20.682;2022-09-24T10:01:15;14.10;1.00
21762;DHT22;11203;50.870;20.682;2022-09-24T10:06:12;14.00;1.00
21762;DHT22;11203;50.870;20.682;2022-09-24T10:08:39;14.10;1.00
21762;DHT22;11203;50.870;20.682;2022-09-24T10:11:09;14.00;1.00
21762;DHT22;11203;50.870;20.682;2022-09-24T10:13:39;14.00;1.00
21762;DHT22;11203;50.870;20.682;2022-09-24T10:16:08;14.00;1.00
21762;DHT22;11203;50.870;20.682;2022-09-24T10:18:40;14.00;1.00
21762;DHT22;11203;50.870;20.682;2022-09-24T10:21:09;14.00;1.00
21762;DHT22;11203;50.870;20.682;2022-09-24T10:23:42;14.10;1.00
21762;DHT22;11203;50.870;20.682;2022-09-24T10:26:09;14.10;1.00
21762;DHT22;11203;50.870;20.682;2022-09-24T10:28:44;14.20;1.00
21762;DHT22;11203;50.870;20.682;2022-09-24T10:31:34;14.30;1.00
21762;DHT22;11203;50.870;20.682;2022-09-24T10:34:03;14.40;1.00
21762;DHT22;11203;50.870;20.682;2022-09-24T10:36:31;14.50;1.00
21762;DHT22;11203;50.870;20.682;2022-09-24T10:41:36;14.70;1.00
21762;DHT22;11203;50.870;20.682;2022-09-24T10:44:07;14.70;1.00
21762;DHT22;11203;50.870;20.682;2022-09-24T10:49:38;14.90;1.00
21762;DHT22;11203;50.870;20.682;2022-09-24T10:55:25;14.60;1.00
21762;DHT22;11203;50.870;20.682;2022-09-24T10:58:18;14.60;1.00
21762;DHT22;11203;50.870;20.682;2022-09-24T11:01:17;14.70;1.00
21762;DHT22;11203;50.870;20.682;2022-09-24T11:10:49;14.90;1.00
21762;DHT22;11203;50.870;20.682;2022-09-24T11:25:20;14.80;1.00
21762;DHT22;11203;50.870;20.682;2022-09-24T11:31:16;15.30;1.00
21762;DHT22;11203;50.870;20.682;2022-09-24T11:34:18;15.40;1.00
21762;DHT22;11203;50.870;20.682;2022-09-24T11:37:27;15.50;1.00
21762;DHT22;11203;50.870;20.682;2022-09-24T11:40:28;15.80;1.00
21762;DHT22;11203;50.870;20.682;2022-09-24T11:46:46;15.80;1.00
21762;DHT22;11203;50.870;20.682;2022-09-24T11:52:38;15.90;1.00
21762;DHT22;11203;50.870;20.682;2022-09-24T12:01:20;15.60;1.00
21762;DHT22;11203;50.870;20.682;2022-09-24T12:06:34;15.70;1.00
21762;DHT22;11203;50.870;20.682;2022-09-24T12:11:50;15.70;1.00
21762;DHT22;11203;50.870;20.682;2022-09-24T12:14:29;15.60;1.00
21762;DHT22;11203;50.870;20.682;2022-09-24T12:17:06;15.50;1.00
21762;DHT22;11203;50.870;20.682;2022-09-24T12:19:48;15.30;1.00
21762;DHT22;11203;50.870;20.682;2022-09-24T12:22:19;15.30;1.00
21762;DHT22;11203;50.870;20.682;2022-09-24T12:24:54;15.30;1.00
21762;DHT22;11203;50.870;20.682;2022-09-24T12:27:34;15.30;1.00
21762;DHT22;11203;50.870;20.682;2022-09-24T12:33:50;15.20;1.00
21762;DHT22;11203;50.870;20.682;2022-09-24T12:36:34;15.20;1.00
21762;DHT22;11203;50.870;20.682;2022-09-24T12:39:22;15.30;1.00
21762;DHT22;11203;50.870;20.682;2022-09-24T12:42:00;15.20;1.00
21762;DHT22;11203;50.870;20.682;2022-09-24T12:44:44;15.10;1.00
21762;DHT22;11203;50.870;20.682;2022-09-24T12:47:18;15.10;1.00
21762;DHT22;11203;50.870;20.682;2022-09-24T12:50:01;15.20;1.00
21762;DHT22;11203;50.870;20.682;2022-09-24T12:52:39;15.20;1.00
21762;DHT22;11203;50.870;20.682;2022-09-24T12:55:25;15.40;1.00
21762;DHT22;11203;50.870;20.682;2022-09-24T12:58:05;15.50;1.00
21762;DHT22;11203;50.870;20.682;2022-09-24T13:00:39;15.40;1.00
21762;DHT22;11203;50.870;20.682;2022-09-24T13:05:55;15.40;1.00
21762;DHT22;11203;50.870;20.682;2022-09-24T13:08:29;15.40;1.00
21762;DHT22;11203;50.870;20.682;2022-09-24T13:11:23;15.50;1.00
21762;DHT22;11203;50.870;20.682;2022-09-24T13:16:43;15.60;1.00
21762;DHT22;11203;50.870;20.682;2022-09-24T13:21:59;15.50;1.00
21762;DHT22;11203;50.870;20.682;2022-09-24T13:24:44;15.50;1.00
21762;DHT22;11203;50.870;20.682;2022-09-24T13:32:41;15.70;1.00
21762;DHT22;11203;50.870;20.682;2022-09-24T13:35:23;15.70;1.00
21762;DHT22;11203;50.870;20.682;2022-09-24T13:37:56;15.70;1.00
21762;DHT22;11203;50.870;20.682;2022-09-24T13:40:37;15.60;1.00
21762;DHT22;11203;50.870;20.682;2022-09-24T13:43:16;15.60;1.00
21762;DHT22;11203;50.870;20.682;2022-09-24T13:45:44;15.60;1.00
21762;DHT22;11203;50.870;20.682;2022-09-24T13:48:29;15.70;1.00
21762;DHT22;11203;50.870;20.682;2022-09-24T13:51:02;15.80;1.00
21762;DHT22;11203;50.870;20.682;2022-09-24T13:53:36;15.90;1.00
21762;DHT22;11203;50.870;20.682;2022-09-24T13:56:11;15.80;1.00
21762;DHT22;11203;50.870;20.682;2022-09-24T13:58:40;15.70;1.00
21762;DHT22;11203;50.870;20.682;2022-09-24T14:01:23;15.70;1.00
21762;DHT22;11203;50.870;20.682;2022-09-24T14:03:57;15.80;1.00
21762;DHT22;11203;50.870;20.682;2022-09-24T14:06:43;15.70;1.00
21762;DHT22;11203;50.870;20.682;2022-09-24T14:09:32;15.70;1.00
21762;DHT22;11203;50.870;20.682;2022-09-24T14:12:01;15.70;1.00
21762;DHT22;11203;50.870;20.682;2022-09-24T14:14:54;15.60;1.00
21762;DHT22;11203;50.870;20.682;2022-09-24T14:17:23;15.60;1.00
21762;DHT22;11203;50.870;20.682;2022-09-24T14:19:55;15.70;1.00
21762;DHT22;11203;50.870;20.682;2022-09-24T14:22:36;15.60;1.00
21762;DHT22;11203;50.870;20.682;2022-09-24T14:25:11;15.60;1.00
21762;DHT22;11203;50.870;20.682;2022-09-24T14:27:49;15.50;1.00
21762;DHT22;11203;50.870;20.682;2022-09-24T14:30:21;15.50;1.00
21762;DHT22;11203;50.870;20.682;2022-09-24T14:33:04;15.50;1.00
21762;DHT22;11203;50.870;20.682;2022-09-24T14:35:34;15.60;1.00
21762;DHT22;11203;50.870;20.682;2022-09-24T14:38:23;15.60;1.00
21762;DHT22;11203;50.870;20.682;2022-09-24T14:43:36;15.60;1.00
21762;DHT22;11203;50.870;20.682;2022-09-24T14:52:02;15.50;1.00
21762;DHT22;11203;50.870;20.682;2022-09-24T14:59:44;15.30;1.00
21762;DHT22;11203;50.870;20.682;2022-09-24T15:02:21;15.20;1.00
21762;DHT22;11203;50.870;20.682;2022-09-24T15:04:53;15.10;1.00
21762;DHT22;11203;50.870;20.682;2022-09-24T15:07:24;15.20;1.00
21762;DHT22;11203;50.870;20.682;2022-09-24T15:09:54;15.20;1.00
21762;DHT22;11203;50.870;20.682;2022-09-24T15:12:32;15.20;1.00
21762;DHT22;11203;50.870;20.682;2022-09-24T15:17:42;15.10;1.00
21762;DHT22;11203;50.870;20.682;2022-09-24T15:20:10;15.10;1.00
21762;DHT22;11203;50.870;20.682;2022-09-24T15:22:37;14.90;1.00
21762;DHT22;11203;50.870;20.682;2022-09-24T15:25:04;14.90;1.00
21762;DHT22;11203;50.870;20.682;2022-09-24T15:27:34;15.00;1.00
21762;DHT22;11203;50.870;20.682;2022-09-24T15:30:04;15.00;1.00
21762;DHT22;11203;50.870;20.682;2022-09-24T15:32:34;15.00;1.00
21762;DHT22;11203;50.870;20.682;2022-09-24T15:35:00;14.90;1.00
21762;DHT22;11203;50.870;20.682;2022-09-24T15:37:32;14.90;1.00
21762;DHT22;11203;50.870;20.682;2022-09-24T15:40:09;14.80;1.00
21762;DHT22;11203;50.870;20.682;2022-09-24T15:42:41;14.80;1.00
21762;DHT22;11203;50.870;20.682;2022-09-24T15:45:17;14.80;1.00
21762;DHT22;11203;50.870;20.682;2022-09-24T15:47:46;14.70;1.00
21762;DHT22;11203;50.870;20.682;2022-09-24T15:50:14;14.70;1.00
21762;DHT22;11203;50.870;20.682;2022-09-24T15:55:24;14.50;1.00
21762;DHT22;11203;50.870;20.682;2022-09-24T15:57:50;14.50;1.00
21762;DHT22;11203;50.870;20.682;2022-09-24T16:00:18;14.50;1.00
21762;DHT22;11203;50.870;20.682;2022-09-24T16:02:52;14.40;1.00
21762;DHT22;11203;50.870;20.682;2022-09-24T16:05:20;14.30;1.00
21762;DHT22;11203;50.870;20.682;2022-09-24T16:07:46;14.30;1.00
21762;DHT22;11203;50.870;20.682;2022-09-24T16:10:13;14.10;1.00
21762;DHT22;11203;50.870;20.682;2022-09-24T16:12:41;14.00;1.00
21762;DHT22;11203;50.870;20.682;2022-09-24T16:15:11;13.90;1.00
21762;DHT22;11203;50.870;20.682;2022-09-24T16:17:39;13.60;1.00
21762;DHT22;11203;50.870;20.682;2022-09-24T16:20:05;13.40;1.00
21762;DHT22;11203;50.870;20.682;2022-09-24T16:22:31;13.30;1.00
21762;DHT22;11203;50.870;20.682;2022-09-24T16:24:58;13.20;1.00
21762;DHT22;11203;50.870;20.682;2022-09-24T16:27:24;13.10;1.00
21762;DHT22;11203;50.870;20.682;2022-09-24T16:29:50;13.00;1.00
21762;DHT22;11203;50.870;20.682;2022-09-24T16:32:16;12.90;1.00
21762;DHT22;11203;50.870;20.682;2022-09-24T16:34:42;12.90;1.00
21762;DHT22;11203;50.870;20.682;2022-09-24T16:37:08;12.90;1.00
21762;DHT22;11203;50.870;20.682;2022-09-24T16:39:34;12.50;25.20
21762;DHT22;11203;50.870;20.682;2022-09-24T16:42:00;12.40;84.30
21762;DHT22;11203;50.870;20.682;2022-09-24T16:44:26;12.30;99.90
21762;DHT22;11203;50.870;20.682;2022-09-24T16:46:54;12.20;99.90
21762;DHT22;11203;50.870;20.682;2022-09-24T16:49:22;12.20;1.00
21762;DHT22;11203;50.870;20.682;2022-09-24T16:51:48;12.20;99.90
21762;DHT22;11203;50.870;20.682;2022-09-24T16:54:14;12.10;99.90
21762;DHT22;11203;50.870;20.682;2022-09-24T16:56:40;12.20;99.90
21762;DHT22;11203;50.870;20.682;2022-09-24T16:59:07;12.30;99.90
21762;DHT22;11203;50.870;20.682;2022-09-24T17:01:34;12.30;99.90
21762;DHT22;11203;50.870;20.682;2022-09-24T17:04:00;12.20;1.00
21762;DHT22;11203;50.870;20.682;2022-09-24T17:06:28;12.20;35.80
21762;DHT22;11203;50.870;20.682;2022-09-24T17:08:56;12.10;96.60
21762;DHT22;11203;50.870;20.682;2022-09-24T17:11:41;11.90;99.90
21762;DHT22;11203;50.870;20.682;2022-09-24T17:14:08;11.80;99.90
21762;DHT22;11203;50.870;20.682;2022-09-24T17:16:37;11.70;1.00
21762;DHT22;11203;50.870;20.682;2022-09-24T17:19:04;11.70;1.00
21762;DHT22;11203;50.870;20.682;2022-09-24T17:21:33;11.70;1.00
21762;DHT22;11203;50.870;20.682;2022-09-24T17:24:00;11.70;1.00
21762;DHT22;11203;50.870;20.682;2022-09-24T17:26:26;11.80;1.00
21762;DHT22;11203;50.870;20.682;2022-09-24T17:28:53;11.70;1.00
21762;DHT22;11203;50.870;20.682;2022-09-24T17:31:21;11.80;1.00
21762;DHT22;11203;50.870;20.682;2022-09-24T17:34:00;11.60;1.00
21762;DHT22;11203;50.870;20.682;2022-09-24T17:36:32;11.60;1.00
21762;DHT22;11203;50.870;20.682;2022-09-24T17:38:59;11.70;1.00
21762;DHT22;11203;50.870;20.682;2022-09-24T17:41:27;11.60;1.00
21762;DHT22;11203;50.870;20.682;2022-09-24T17:43:54;11.50;1.00
21762;DHT22;11203;50.870;20.682;2022-09-24T17:46:25;11.50;1.00
21762;DHT22;11203;50.870;20.682;2022-09-24T17:48:54;11.30;1.00
21762;DHT22;11203;50.870;20.682;2022-09-24T17:51:27;11.30;1.00
21762;DHT22;11203;50.870;20.682;2022-09-24T17:53:58;11.40;1.00
21762;DHT22;11203;50.870;20.682;2022-09-24T17:56:27;11.50;1.00
21762;DHT22;11203;50.870;20.682;2022-09-24T17:58:54;11.60;1.00
21762;DHT22;11203;50.870;20.682;2022-09-24T18:01:23;11.50;1.00
21762;DHT22;11203;50.870;20.682;2022-09-24T18:03:57;11.50;1.00
21762;DHT22;11203;50.870;20.682;2022-09-24T18:06:25;11.50;1.00
21762;DHT22;11203;50.870;20.682;2022-09-24T18:08:52;11.40;1.00
21762;DHT22;11203;50.870;20.682;2022-09-24T18:11:23;11.40;1.00